createdAt,value
2023-02-07T00:02:25.443Z,1.60
2023-02-07T00:07:28.081Z,1.60
2023-02-07T00:12:30.015Z,1.50
2023-02-07T00:17:32.441Z,1.50
2023-02-07T00:22:34.788Z,1.70
2023-02-07T00:27:38.068Z,1.60
2023-02-07T00:32:39.889Z,1.50
2023-02-07T00:37:41.835Z,1.50
2023-02-07T00:42:43.601Z,1.40
2023-02-07T00:47:45.366Z,1.30
2023-02-07T00:52:47.135Z,1.20
2023-02-07T00:57:48.951Z,1.20
2023-02-07T01:02:50.865Z,1.00
2023-02-07T01:07:52.661Z,1.20
2023-02-07T01:12:54.622Z,1.10
2023-02-07T01:17:56.559Z,1.00
2023-02-07T01:22:58.399Z,0.80
2023-02-07T01:28:00.261Z,0.90
2023-02-07T01:33:02.335Z,1.10
2023-02-07T01:38:04.808Z,1.20
2023-02-07T01:43:07.037Z,1.10
2023-02-07T01:48:30.918Z,1.00
2023-02-07T01:53:37.656Z,0.90
2023-02-07T01:58:39.790Z,1.20
2023-02-07T02:03:46.206Z,0.90
2023-02-07T02:08:48.337Z,0.60
2023-02-07T02:13:56.926Z,0.70
2023-02-07T02:20:03.145Z,0.80
2023-02-07T02:25:07.641Z,0.60
2023-02-07T02:30:20.208Z,0.50
2023-02-07T02:35:55.412Z,0.50
2023-02-07T02:41:21.528Z,0.50
2023-02-07T02:46:34.926Z,0.50
2023-02-07T02:51:36.735Z,0.40
2023-02-07T02:56:52.595Z,0.40
2023-02-07T03:02:05.900Z,0.40
2023-02-07T03:07:37.164Z,0.10
2023-02-07T03:12:57.024Z,0.40
2023-02-07T03:18:29.254Z,0.30
2023-02-07T03:23:32.303Z,0.60
2023-02-07T03:28:35.426Z,0.50
2023-02-07T03:33:39.289Z,0.10
2023-02-07T03:38:41.046Z,0.10
2023-02-07T03:43:44.107Z,0.20
2023-02-07T03:48:45.882Z,-0.10
2023-02-07T03:53:47.653Z,-0.10
2023-02-07T03:58:49.540Z,-0.10
2023-02-07T04:03:51.333Z,0.00
2023-02-07T04:08:53.353Z,-0.10
2023-02-07T04:13:55.173Z,-0.30
2023-02-07T04:18:56.932Z,-0.10
2023-02-07T04:23:59.881Z,-0.20
2023-02-07T04:29:02.148Z,0.00
2023-02-07T04:34:07.568Z,0.00
2023-02-07T04:39:09.478Z,-0.10
2023-02-07T04:44:11.273Z,-0.10
2023-02-07T04:49:13.061Z,-0.10
2023-02-07T04:54:15.038Z,-0.10
2023-02-07T04:59:16.848Z,0.00
2023-02-07T05:04:18.685Z,-0.20
2023-02-07T05:09:20.497Z,-0.10
2023-02-07T05:14:22.329Z,-0.20
2023-02-07T05:19:24.121Z,-0.20
2023-02-07T05:24:26.054Z,-0.60
2023-02-07T05:29:28.039Z,-0.50
2023-02-07T05:34:29.807Z,-0.30
2023-02-07T05:39:31.583Z,-0.30
2023-02-07T05:44:33.347Z,-0.20
2023-02-07T05:49:35.121Z,-0.30
2023-02-07T05:54:36.905Z,-0.20
2023-02-07T05:59:38.817Z,-0.50
2023-02-07T06:04:40.622Z,-0.60
2023-02-07T06:09:42.428Z,-0.60
2023-02-07T06:14:44.580Z,-0.70
2023-02-07T06:19:46.395Z,-0.60
2023-02-07T06:24:48.340Z,-0.70
2023-02-07T06:29:50.234Z,-0.80
2023-02-07T06:34:52.150Z,-0.70
2023-02-07T06:39:54.025Z,-0.70
2023-02-07T06:44:55.757Z,-0.80
2023-02-07T06:49:57.500Z,-0.90
2023-02-07T06:54:59.269Z,-0.90
2023-02-07T07:00:01.661Z,-1.00
2023-02-07T07:05:03.969Z,-0.90
2023-02-07T07:10:06.409Z,-1.20
2023-02-07T07:15:08.664Z,-0.90
2023-02-07T07:20:11.230Z,-0.90
2023-02-07T07:25:13.224Z,-0.90
2023-02-07T07:30:15.031Z,-1.00
2023-02-07T07:35:18.800Z,-0.90
2023-02-07T07:40:21.530Z,-0.90
2023-02-07T07:45:23.366Z,-0.90
2023-02-07T07:50:25.225Z,-1.10
2023-02-07T07:55:27.112Z,-0.90
2023-02-07T08:00:28.987Z,-0.70
2023-02-07T08:05:30.886Z,-0.60
2023-02-07T08:10:32.845Z,-0.50
2023-02-07T08:15:34.864Z,-0.40
2023-02-07T08:20:36.984Z,-0.30
2023-02-07T08:25:38.981Z,-0.10
2023-02-07T08:30:40.990Z,0.00
2023-02-07T08:35:43.437Z,0.10
2023-02-07T08:40:46.882Z,0.30
2023-02-07T08:45:49.418Z,0.50
2023-02-07T08:50:51.264Z,0.70
2023-02-07T08:55:53.078Z,1.00
2023-02-07T09:00:55.252Z,1.10
2023-02-07T09:06:00.772Z,1.20
2023-02-07T09:11:09.114Z,1.40
2023-02-07T09:16:15.017Z,1.60
2023-02-07T09:21:17.514Z,1.70
2023-02-07T09:26:21.664Z,1.80
2023-02-07T09:31:24.732Z,2.00
2023-02-07T09:36:28.538Z,2.10
2023-02-07T09:41:52.697Z,2.30
2023-02-07T09:47:06.631Z,2.50
2023-02-07T09:52:17.159Z,2.70
2023-02-07T09:57:37.801Z,2.70
2023-02-07T10:02:45.672Z,2.80
2023-02-07T10:07:48.992Z,3.10
2023-02-07T10:13:37.095Z,3.00
2023-02-07T10:18:52.136Z,3.00
2023-02-07T10:24:08.264Z,3.30
2023-02-07T10:29:49.140Z,3.40
2023-02-07T10:34:55.798Z,3.60
2023-02-07T10:40:19.041Z,3.70
2023-02-07T10:45:20.857Z,3.90
2023-02-07T10:50:29.994Z,4.10
2023-02-07T10:55:46.298Z,4.20
2023-02-07T11:00:49.912Z,4.30
2023-02-07T11:05:55.593Z,4.40
2023-02-07T11:10:59.452Z,4.60
2023-02-07T11:16:08.628Z,4.80
2023-02-07T11:21:22.738Z,4.90
2023-02-07T11:26:24.855Z,5.20
2023-02-07T11:31:32.650Z,5.30
2023-02-07T11:36:34.646Z,5.40
2023-02-07T11:41:39.022Z,5.30
2023-02-07T11:46:43.723Z,5.20
2023-02-07T11:51:48.768Z,5.40
2023-02-07T11:56:55.809Z,5.60
2023-02-07T12:02:01.932Z,5.70
2023-02-07T12:07:29.284Z,6.20
2023-02-07T12:12:37.054Z,6.00
2023-02-07T12:17:52.848Z,6.10
2023-02-07T12:23:27.923Z,6.30
2023-02-07T12:28:38.811Z,6.70
2023-02-07T12:33:48.904Z,6.80
2023-02-07T12:39:20.409Z,6.90
2023-02-07T12:44:34.775Z,7.20
2023-02-07T12:49:45.149Z,7.20
2023-02-07T12:54:53.231Z,7.40
2023-02-07T12:59:58.052Z,7.30
2023-02-07T13:05:10.260Z,7.30
2023-02-07T13:10:36.562Z,7.60
2023-02-07T13:16:06.231Z,7.80
2023-02-07T13:21:19.436Z,7.80
2023-02-07T13:26:24.982Z,8.10
2023-02-07T13:31:47.350Z,8.10
2023-02-07T13:36:51.581Z,8.30
2023-02-07T13:42:13.327Z,8.60
2023-02-07T13:47:34.031Z,8.70
2023-02-07T13:53:13.991Z,9.30
2023-02-07T13:58:52.772Z,9.50
2023-02-07T14:04:05.166Z,9.10
2023-02-07T14:09:23.935Z,8.70
2023-02-07T14:14:28.645Z,9.30
2023-02-07T14:19:39.570Z,9.40
2023-02-07T14:24:59.722Z,9.60
2023-02-07T14:30:01.467Z,9.60
2023-02-07T14:35:26.034Z,10.20
2023-02-07T14:40:31.802Z,10.50
2023-02-07T14:45:36.369Z,10.70
2023-02-07T14:50:40.049Z,11.10
2023-02-07T14:55:48.710Z,11.40
2023-02-07T15:00:54.167Z,11.50
2023-02-07T15:06:01.390Z,11.70
2023-02-07T15:11:08.365Z,11.70
2023-02-07T15:16:20.057Z,12.00
2023-02-07T15:21:24.351Z,12.70
2023-02-07T15:26:26.348Z,15.00
2023-02-07T15:31:29.063Z,17.00
2023-02-07T15:36:35.624Z,17.20
2023-02-07T15:41:37.705Z,16.90
2023-02-07T15:46:55.191Z,16.60
2023-02-07T15:52:19.910Z,16.10
2023-02-07T15:57:29.007Z,10.90
2023-02-07T16:02:40.932Z,9.00
2023-02-07T16:07:45.219Z,8.50
2023-02-07T16:12:53.099Z,12.10
2023-02-07T16:17:55.977Z,11.00
2023-02-07T16:23:01.583Z,9.10
2023-02-07T16:28:08.642Z,8.20
2023-02-07T16:33:13.322Z,7.70
2023-02-07T16:38:15.160Z,7.10
2023-02-07T16:43:36.094Z,6.80
2023-02-07T16:48:37.957Z,6.40
2023-02-07T16:53:39.843Z,6.10
2023-02-07T16:58:42.296Z,5.90
2023-02-07T17:03:44.563Z,5.80
2023-02-07T17:08:46.906Z,5.60
2023-02-07T17:13:48.716Z,5.40
2023-02-07T17:18:50.830Z,5.30
2023-02-07T17:23:52.598Z,5.00
2023-02-07T17:28:55.314Z,4.80
2023-02-07T17:33:57.066Z,4.70
2023-02-07T17:38:59.283Z,4.70
2023-02-07T17:44:01.161Z,4.40
2023-02-07T17:49:03.497Z,4.40
2023-02-07T17:54:05.367Z,4.20
2023-02-07T17:59:09.640Z,4.00
2023-02-07T18:04:11.419Z,3.90
2023-02-07T18:09:19.956Z,3.90
2023-02-07T18:14:21.880Z,3.80
2023-02-07T18:19:23.897Z,3.60
2023-02-07T18:24:25.945Z,3.50
2023-02-07T18:29:28.058Z,3.50
2023-02-07T18:34:29.975Z,3.30
2023-02-07T18:39:31.969Z,3.50
2023-02-07T18:44:33.746Z,3.30
2023-02-07T18:49:35.758Z,3.20
2023-02-07T18:54:39.143Z,3.10
2023-02-07T18:59:41.024Z,3.20
2023-02-07T19:04:43.359Z,3.10
2023-02-07T19:09:45.317Z,3.10
2023-02-07T19:14:47.367Z,3.10
2023-02-07T19:19:49.302Z,3.00
2023-02-07T19:24:51.122Z,2.80
2023-02-07T19:29:52.878Z,2.70
2023-02-07T19:34:55.429Z,2.70
2023-02-07T19:39:57.344Z,2.70
2023-02-07T19:45:00.432Z,2.90
2023-02-07T19:50:03.824Z,2.70
2023-02-07T19:55:05.916Z,2.50
2023-02-07T20:00:08.889Z,2.30
2023-02-07T20:05:12.138Z,2.20
2023-02-07T20:10:14.048Z,2.10
2023-02-07T20:15:17.205Z,1.90
2023-02-07T20:20:19.046Z,1.80
2023-02-07T20:25:20.912Z,1.80
2023-02-07T20:30:22.982Z,1.60
2023-02-07T20:35:26.462Z,1.50
2023-02-07T20:40:28.274Z,1.40
2023-02-07T20:45:31.200Z,1.30
2023-02-07T20:50:35.016Z,1.20
2023-02-07T20:55:36.861Z,1.40
2023-02-07T21:00:38.929Z,1.20
2023-02-07T21:05:41.032Z,1.20
2023-02-07T21:10:42.916Z,1.10
2023-02-07T21:16:01.420Z,1.10
2023-02-07T21:21:08.412Z,1.10
2023-02-07T21:26:13.815Z,1.00
2023-02-07T21:31:21.872Z,1.00
2023-02-07T21:36:29.519Z,1.10
2023-02-07T21:41:31.769Z,0.90
2023-02-07T21:46:37.913Z,0.90
2023-02-07T21:51:39.972Z,0.70
2023-02-07T21:56:43.430Z,0.70
2023-02-07T22:01:46.843Z,0.70
2023-02-07T22:06:49.595Z,0.60
2023-02-07T22:11:51.610Z,0.70
2023-02-07T22:16:54.025Z,0.60
2023-02-07T22:21:56.060Z,0.60
2023-02-07T22:26:57.919Z,0.50
2023-02-07T22:31:59.859Z,0.50
2023-02-07T22:37:01.706Z,0.40
2023-02-07T22:42:03.634Z,0.40
2023-02-07T22:47:05.447Z,0.30
2023-02-07T22:52:07.712Z,0.20
2023-02-07T22:57:13.404Z,0.00
2023-02-07T23:02:15.270Z,0.10
2023-02-07T23:07:17.084Z,0.10
2023-02-07T23:12:18.946Z,0.10
2023-02-07T23:17:20.713Z,0.00
2023-02-07T23:22:22.795Z,0.10
2023-02-07T23:27:24.747Z,-0.10
2023-02-07T23:32:26.600Z,-0.20
2023-02-07T23:37:28.465Z,-0.10
2023-02-07T23:42:30.275Z,-0.40
2023-02-07T23:47:32.022Z,-0.10
2023-02-07T23:52:33.978Z,-0.10
2023-02-07T23:57:36.007Z,-0.20
